sensor_id;sensor_type;location;lat;lon;timestamp;P1;durP1;ratioP1;P2;durP2;ratioP2
32329;SDS011;18807;52.434;13.238;2023-07-02T00:05:08;2.78;;;1.60;;
32329;SDS011;18807;52.434;13.238;2023-07-02T00:12:43;2.40;;;1.90;;
32329;SDS011;18807;52.434;13.238;2023-07-02T00:20:18;2.10;;;1.90;;
32329;SDS011;18807;52.434;13.238;2023-07-02T00:27:52;2.50;;;1.83;;
32329;SDS011;18807;52.434;13.238;2023-07-02T00:35:27;2.33;;;2.00;;
32329;SDS011;18807;52.434;13.238;2023-07-02T00:43:01;3.53;;;2.90;;
32329;SDS011;18807;52.434;13.238;2023-07-02T00:50:36;3.10;;;2.80;;
32329;SDS011;18807;52.434;13.238;2023-07-02T00:58:11;3.30;;;3.00;;
32329;SDS011;18807;52.434;13.238;2023-07-02T01:05:49;3.78;;;3.35;;
32329;SDS011;18807;52.434;13.238;2023-07-02T01:13:23;3.78;;;3.45;;
32329;SDS011;18807;52.434;13.238;2023-07-02T01:21:00;4.45;;;3.50;;
32329;SDS011;18807;52.434;13.238;2023-07-02T01:28:39;5.00;;;4.35;;
32329;SDS011;18807;52.434;13.238;2023-07-02T01:36:14;5.50;;;5.00;;
32329;SDS011;18807;52.434;13.238;2023-07-02T01:43:48;5.47;;;4.82;;
32329;SDS011;18807;52.434;13.238;2023-07-02T01:51:24;7.00;;;6.17;;
32329;SDS011;18807;52.434;13.238;2023-07-02T01:58:58;6.53;;;5.22;;
32329;SDS011;18807;52.434;13.238;2023-07-02T02:06:33;5.38;;;4.88;;
32329;SDS011;18807;52.434;13.238;2023-07-02T02:14:08;5.38;;;4.43;;
32329;SDS011;18807;52.434;13.238;2023-07-02T02:21:44;4.93;;;4.25;;
32329;SDS011;18807;52.434;13.238;2023-07-02T02:29:18;5.93;;;3.65;;
32329;SDS011;18807;52.434;13.238;2023-07-02T02:36:53;5.07;;;4.00;;
32329;SDS011;18807;52.434;13.238;2023-07-02T02:44:27;5.00;;;3.90;;
32329;SDS011;18807;52.434;13.238;2023-07-02T02:52:03;5.83;;;4.57;;
32329;SDS011;18807;52.434;13.238;2023-07-02T02:59:37;4.18;;;3.78;;
32329;SDS011;18807;52.434;13.238;2023-07-02T03:07:13;3.63;;;2.93;;
32329;SDS011;18807;52.434;13.238;2023-07-02T03:14:47;5.25;;;3.47;;
32329;SDS011;18807;52.434;13.238;2023-07-02T03:22:26;6.45;;;4.70;;
32329;SDS011;18807;52.434;13.238;2023-07-02T03:30:00;4.38;;;3.70;;
32329;SDS011;18807;52.434;13.238;2023-07-02T03:37:37;4.90;;;4.43;;
32329;SDS011;18807;52.434;13.238;2023-07-02T03:45:14;6.88;;;4.05;;
32329;SDS011;18807;52.434;13.238;2023-07-02T03:52:49;8.20;;;3.83;;
32329;SDS011;18807;52.434;13.238;2023-07-02T04:00:23;3.47;;;3.17;;
32329;SDS011;18807;52.434;13.238;2023-07-02T04:07:59;4.30;;;3.03;;
32329;SDS011;18807;52.434;13.238;2023-07-02T04:15:33;5.55;;;3.28;;
32329;SDS011;18807;52.434;13.238;2023-07-02T04:23:08;4.60;;;3.43;;
32329;SDS011;18807;52.434;13.238;2023-07-02T04:30:42;5.93;;;3.33;;
32329;SDS011;18807;52.434;13.238;2023-07-02T04:38:18;7.82;;;3.58;;
32329;SDS011;18807;52.434;13.238;2023-07-02T04:45:52;3.75;;;3.03;;
32329;SDS011;18807;52.434;13.238;2023-07-02T04:53:28;5.63;;;3.47;;
32329;SDS011;18807;52.434;13.238;2023-07-02T05:01:02;5.40;;;3.22;;
32329;SDS011;18807;52.434;13.238;2023-07-02T05:16:14;5.10;;;3.85;;
32329;SDS011;18807;52.434;13.238;2023-07-02T05:23:50;4.47;;;3.30;;
32329;SDS011;18807;52.434;13.238;2023-07-02T05:31:24;7.53;;;3.35;;
32329;SDS011;18807;52.434;13.238;2023-07-02T05:38:59;5.30;;;3.10;;
32329;SDS011;18807;52.434;13.238;2023-07-02T05:46:33;4.75;;;3.20;;
32329;SDS011;18807;52.434;13.238;2023-07-02T05:54:09;4.20;;;3.20;;
32329;SDS011;18807;52.434;13.238;2023-07-02T06:01:43;4.53;;;3.13;;
32329;SDS011;18807;52.434;13.238;2023-07-02T06:09:19;4.70;;;2.83;;
32329;SDS011;18807;52.434;13.238;2023-07-02T06:16:53;3.85;;;2.40;;
32329;SDS011;18807;52.434;13.238;2023-07-02T06:24:31;5.43;;;3.15;;
32329;SDS011;18807;52.434;13.238;2023-07-02T06:32:05;3.63;;;2.50;;
32329;SDS011;18807;52.434;13.238;2023-07-02T06:39:42;4.95;;;2.70;;
32329;SDS011;18807;52.434;13.238;2023-07-02T06:47:16;4.10;;;2.88;;
32329;SDS011;18807;52.434;13.238;2023-07-02T06:54:54;4.97;;;2.45;;
32329;SDS011;18807;52.434;13.238;2023-07-02T07:02:28;7.88;;;3.42;;
32329;SDS011;18807;52.434;13.238;2023-07-02T07:10:04;6.63;;;2.43;;
32329;SDS011;18807;52.434;13.238;2023-07-02T07:17:39;6.15;;;2.40;;
32329;SDS011;18807;52.434;13.238;2023-07-02T07:25:15;5.25;;;2.97;;
32329;SDS011;18807;52.434;13.238;2023-07-02T07:32:50;3.67;;;2.42;;
32329;SDS011;18807;52.434;13.238;2023-07-02T07:40:26;5.70;;;3.07;;
32329;SDS011;18807;52.434;13.238;2023-07-02T07:48:00;6.38;;;2.88;;
32329;SDS011;18807;52.434;13.238;2023-07-02T07:55:36;4.55;;;2.50;;
32329;SDS011;18807;52.434;13.238;2023-07-02T08:03:10;3.75;;;2.42;;
32329;SDS011;18807;52.434;13.238;2023-07-02T08:10:46;3.33;;;2.78;;
32329;SDS011;18807;52.434;13.238;2023-07-02T08:18:22;7.55;;;3.70;;
32329;SDS011;18807;52.434;13.238;2023-07-02T08:25:59;8.90;;;3.90;;
32329;SDS011;18807;52.434;13.238;2023-07-02T08:33:33;6.85;;;4.22;;
32329;SDS011;18807;52.434;13.238;2023-07-02T08:41:08;5.83;;;3.33;;
32329;SDS011;18807;52.434;13.238;2023-07-02T08:48:43;5.55;;;3.38;;
32329;SDS011;18807;52.434;13.238;2023-07-02T08:56:18;5.32;;;3.47;;
32329;SDS011;18807;52.434;13.238;2023-07-02T09:03:57;4.68;;;3.42;;
32329;SDS011;18807;52.434;13.238;2023-07-02T09:11:35;7.45;;;4.32;;
32329;SDS011;18807;52.434;13.238;2023-07-02T09:19:19;5.65;;;3.65;;
32329;SDS011;18807;52.434;13.238;2023-07-02T09:26:58;7.10;;;4.07;;
32329;SDS011;18807;52.434;13.238;2023-07-02T09:34:34;8.20;;;4.10;;
32329;SDS011;18807;52.434;13.238;2023-07-02T09:42:11;7.18;;;4.05;;
32329;SDS011;18807;52.434;13.238;2023-07-02T09:49:47;7.95;;;4.18;;
32329;SDS011;18807;52.434;13.238;2023-07-02T09:57:27;7.72;;;4.57;;
32329;SDS011;18807;52.434;13.238;2023-07-02T10:05:04;11.52;;;4.65;;
32329;SDS011;18807;52.434;13.238;2023-07-02T10:12:46;11.65;;;4.93;;
32329;SDS011;18807;52.434;13.238;2023-07-02T10:20:30;9.23;;;5.47;;
32329;SDS011;18807;52.434;13.238;2023-07-02T10:28:17;13.63;;;5.40;;
32329;SDS011;18807;52.434;13.238;2023-07-02T10:35:54;10.00;;;5.45;;
32329;SDS011;18807;52.434;13.238;2023-07-02T10:43:30;10.15;;;5.18;;
32329;SDS011;18807;52.434;13.238;2023-07-02T10:51:10;13.10;;;6.60;;
32329;SDS011;18807;52.434;13.238;2023-07-02T10:58:47;20.05;;;8.13;;
32329;SDS011;18807;52.434;13.238;2023-07-02T11:06:23;16.02;;;7.05;;
32329;SDS011;18807;52.434;13.238;2023-07-02T11:13:59;11.52;;;6.05;;
32329;SDS011;18807;52.434;13.238;2023-07-02T11:21:33;11.73;;;5.80;;
32329;SDS011;18807;52.434;13.238;2023-07-02T11:29:11;10.47;;;5.87;;
32329;SDS011;18807;52.434;13.238;2023-07-02T11:36:46;18.17;;;6.47;;
32329;SDS011;18807;52.434;13.238;2023-07-02T11:44:22;13.90;;;7.18;;
32329;SDS011;18807;52.434;13.238;2023-07-02T11:51:56;12.10;;;5.75;;
32329;SDS011;18807;52.434;13.238;2023-07-02T11:59:32;20.47;;;6.33;;
32329;SDS011;18807;52.434;13.238;2023-07-02T12:07:06;14.07;;;6.07;;
32329;SDS011;18807;52.434;13.238;2023-07-02T12:14:42;17.70;;;6.80;;
32329;SDS011;18807;52.434;13.238;2023-07-02T12:22:16;13.80;;;6.25;;
32329;SDS011;18807;52.434;13.238;2023-07-02T12:29:52;14.35;;;6.50;;
32329;SDS011;18807;52.434;13.238;2023-07-02T12:37:27;22.77;;;6.55;;
32329;SDS011;18807;52.434;13.238;2023-07-02T12:45:03;10.50;;;5.77;;
32329;SDS011;18807;52.434;13.238;2023-07-02T12:52:40;16.25;;;6.45;;
32329;SDS011;18807;52.434;13.238;2023-07-02T13:00:15;16.70;;;6.38;;
32329;SDS011;18807;52.434;13.238;2023-07-02T13:07:50;15.38;;;7.75;;
32329;SDS011;18807;52.434;13.238;2023-07-02T13:15:25;14.67;;;6.07;;
32329;SDS011;18807;52.434;13.238;2023-07-02T13:23:00;17.02;;;6.68;;
32329;SDS011;18807;52.434;13.238;2023-07-02T13:30:35;12.47;;;6.27;;
32329;SDS011;18807;52.434;13.238;2023-07-02T13:38:10;13.02;;;5.88;;
32329;SDS011;18807;52.434;13.238;2023-07-02T13:45:45;17.00;;;6.38;;
32329;SDS011;18807;52.434;13.238;2023-07-02T13:53:19;13.48;;;6.05;;
32329;SDS011;18807;52.434;13.238;2023-07-02T14:00:55;12.33;;;5.80;;
32329;SDS011;18807;52.434;13.238;2023-07-02T14:08:29;9.85;;;4.88;;
32329;SDS011;18807;52.434;13.238;2023-07-02T14:16:05;12.00;;;6.73;;
32329;SDS011;18807;52.434;13.238;2023-07-02T14:23:39;10.93;;;6.00;;
32329;SDS011;18807;52.434;13.238;2023-07-02T14:31:15;13.32;;;6.38;;
32329;SDS011;18807;52.434;13.238;2023-07-02T14:38:49;15.07;;;6.57;;
32329;SDS011;18807;52.434;13.238;2023-07-02T14:46:25;17.60;;;6.07;;
32329;SDS011;18807;52.434;13.238;2023-07-02T14:53:59;10.43;;;6.28;;
32329;SDS011;18807;52.434;13.238;2023-07-02T15:01:38;13.00;;;5.28;;
32329;SDS011;18807;52.434;13.238;2023-07-02T15:09:12;9.45;;;5.25;;
32329;SDS011;18807;52.434;13.238;2023-07-02T15:16:47;13.20;;;5.88;;
32329;SDS011;18807;52.434;13.238;2023-07-02T15:24:21;12.75;;;5.20;;
32329;SDS011;18807;52.434;13.238;2023-07-02T15:31:57;13.20;;;6.10;;
32329;SDS011;18807;52.434;13.238;2023-07-02T15:39:31;9.32;;;5.20;;
32329;SDS011;18807;52.434;13.238;2023-07-02T15:54:41;16.47;;;5.73;;
32329;SDS011;18807;52.434;13.238;2023-07-02T16:02:16;13.50;;;5.50;;
32329;SDS011;18807;52.434;13.238;2023-07-02T16:09:50;8.75;;;5.13;;
32329;SDS011;18807;52.434;13.238;2023-07-02T16:17:25;30.15;;;18.27;;
32329;SDS011;18807;52.434;13.238;2023-07-02T16:24:59;10.77;;;5.00;;
32329;SDS011;18807;52.434;13.238;2023-07-02T16:32:34;11.40;;;6.20;;
32329;SDS011;18807;52.434;13.238;2023-07-02T16:40:08;9.43;;;5.43;;
32329;SDS011;18807;52.434;13.238;2023-07-02T16:47:44;9.10;;;4.95;;
32329;SDS011;18807;52.434;13.238;2023-07-02T16:55:19;12.75;;;4.88;;
32329;SDS011;18807;52.434;13.238;2023-07-02T17:02:55;7.97;;;5.03;;
32329;SDS011;18807;52.434;13.238;2023-07-02T17:10:28;11.02;;;5.43;;
32329;SDS011;18807;52.434;13.238;2023-07-02T17:18:04;12.23;;;5.63;;
32329;SDS011;18807;52.434;13.238;2023-07-02T17:25:38;12.13;;;5.03;;
32329;SDS011;18807;52.434;13.238;2023-07-02T17:33:14;10.50;;;5.75;;
32329;SDS011;18807;52.434;13.238;2023-07-02T17:40:48;10.57;;;4.63;;
32329;SDS011;18807;52.434;13.238;2023-07-02T17:48:25;10.70;;;4.97;;
32329;SDS011;18807;52.434;13.238;2023-07-02T17:55:59;8.27;;;4.32;;
32329;SDS011;18807;52.434;13.238;2023-07-02T18:03:35;9.87;;;4.70;;
32329;SDS011;18807;52.434;13.238;2023-07-02T18:11:09;9.88;;;4.63;;
32329;SDS011;18807;52.434;13.238;2023-07-02T18:18:45;10.68;;;5.72;;
32329;SDS011;18807;52.434;13.238;2023-07-02T18:26:19;9.15;;;4.05;;
32329;SDS011;18807;52.434;13.238;2023-07-02T18:33:54;11.70;;;5.05;;
32329;SDS011;18807;52.434;13.238;2023-07-02T18:41:28;10.27;;;4.43;;
32329;SDS011;18807;52.434;13.238;2023-07-02T18:49:04;7.60;;;3.93;;
32329;SDS011;18807;52.434;13.238;2023-07-02T18:56:38;6.97;;;4.10;;
32329;SDS011;18807;52.434;13.238;2023-07-02T19:04:16;9.90;;;4.67;;
32329;SDS011;18807;52.434;13.238;2023-07-02T19:11:58;6.60;;;4.25;;
32329;SDS011;18807;52.434;13.238;2023-07-02T19:19:37;10.65;;;4.90;;
32329;SDS011;18807;52.434;13.238;2023-07-02T19:27:13;6.50;;;3.63;;
32329;SDS011;18807;52.434;13.238;2023-07-02T19:42:33;7.93;;;4.17;;
32329;SDS011;18807;52.434;13.238;2023-07-02T19:50:10;13.80;;;5.60;;
32329;SDS011;18807;52.434;13.238;2023-07-02T19:57:44;9.90;;;4.70;;
32329;SDS011;18807;52.434;13.238;2023-07-02T20:05:20;7.20;;;4.13;;
32329;SDS011;18807;52.434;13.238;2023-07-02T20:12:54;9.10;;;4.65;;
32329;SDS011;18807;52.434;13.238;2023-07-02T20:20:30;8.93;;;4.43;;
32329;SDS011;18807;52.434;13.238;2023-07-02T20:28:04;9.35;;;4.43;;
32329;SDS011;18807;52.434;13.238;2023-07-02T20:35:40;8.82;;;4.88;;
32329;SDS011;18807;52.434;13.238;2023-07-02T20:43:14;9.07;;;4.45;;
32329;SDS011;18807;52.434;13.238;2023-07-02T20:50:49;8.80;;;4.03;;
32329;SDS011;18807;52.434;13.238;2023-07-02T20:58:23;9.85;;;4.35;;
32329;SDS011;18807;52.434;13.238;2023-07-02T21:06:02;7.53;;;3.63;;
32329;SDS011;18807;52.434;13.238;2023-07-02T21:13:37;11.02;;;4.38;;
32329;SDS011;18807;52.434;13.238;2023-07-02T21:21:12;7.53;;;3.97;;
32329;SDS011;18807;52.434;13.238;2023-07-02T21:28:46;9.15;;;4.88;;
32329;SDS011;18807;52.434;13.238;2023-07-02T21:36:21;10.13;;;4.15;;
32329;SDS011;18807;52.434;13.238;2023-07-02T21:43:56;8.88;;;3.78;;
32329;SDS011;18807;52.434;13.238;2023-07-02T21:51:32;9.68;;;3.97;;
32329;SDS011;18807;52.434;13.238;2023-07-02T21:59:06;7.75;;;3.70;;
32329;SDS011;18807;52.434;13.238;2023-07-02T22:06:41;8.38;;;4.70;;
32329;SDS011;18807;52.434;13.238;2023-07-02T22:21:50;8.95;;;4.10;;
32329;SDS011;18807;52.434;13.238;2023-07-02T22:29:26;6.05;;;3.58;;
32329;SDS011;18807;52.434;13.238;2023-07-02T22:37:02;7.75;;;3.72;;
32329;SDS011;18807;52.434;13.238;2023-07-02T22:44:36;5.32;;;4.03;;
32329;SDS011;18807;52.434;13.238;2023-07-02T22:52:11;7.10;;;4.15;;
32329;SDS011;18807;52.434;13.238;2023-07-02T22:59:44;10.88;;;4.22;;
32329;SDS011;18807;52.434;13.238;2023-07-02T23:07:20;7.53;;;4.33;;
32329;SDS011;18807;52.434;13.238;2023-07-02T23:14:54;7.80;;;4.28;;
32329;SDS011;18807;52.434;13.238;2023-07-02T23:22:29;9.90;;;4.30;;
32329;SDS011;18807;52.434;13.238;2023-07-02T23:30:04;8.68;;;4.53;;
32329;SDS011;18807;52.434;13.238;2023-07-02T23:37:41;8.13;;;3.90;;
32329;SDS011;18807;52.434;13.238;2023-07-02T23:45:18;8.15;;;4.25;;
32329;SDS011;18807;52.434;13.238;2023-07-02T23:52:53;6.80;;;3.90;;
